Погода Параунана неделю

Гояс, Бразилия

21 - 27 июля
  • 21июля
    Сегодня
    +16°
    +31°
    Ясно и безоблачно
    ВремяПогодаТемператураВлажностьДавлениеВетер, м/сВероятность осадков
    00:00Ясно и безоблачно+19°C42 %702 мм2.4 м/с5 %
    03:00Ясно и безоблачно+17°C48 %701 мм2.5 м/с5 %
    06:00Ясно и безоблачно+15°C54 %701 мм2.1 м/с5 %
    09:00Ясно и безоблачно+21°C42 %703 мм2.2 м/с5 %
    12:00Ясно и безоблачно+28°C26 %704 мм3.6 м/с5 %
    15:00Ясно и безоблачно+31°C22 %702 мм2.2 м/с5 %
    18:00Ясно и безоблачно+28°C28 %701 мм2.0 м/с5 %
    21:00Ясно и безоблачно+24°C32 %702 мм2.1 м/с5 %
  • 22июля
    Понедельник
    +16°
    +31°
    Ясно и безоблачно
    ВремяПогодаТемператураВлажностьДавлениеВетер, м/сВероятность осадков
    00:00Ясно и безоблачно+19°C42 %702 мм2.1 м/с5 %
    03:00Ясно и безоблачно+17°C48 %701 мм2.3 м/с5 %
    06:00Ясно и безоблачно+16°C51 %701 мм1.8 м/с5 %
    09:00Ясно и безоблачно+21°C39 %704 мм2.0 м/с5 %
    12:00Практически безоблачно+28°C27 %704 мм2.2 м/с5 %
    15:00Ясно и безоблачно+31°C24 %703 мм2.0 м/с5 %
    18:00Ясно и безоблачно+28°C30 %702 мм2.4 м/с5 %
    21:00Ясно и безоблачно+24°C39 %703 мм2.5 м/с5 %
  • 23июля
    Вторник
    +16°
    +32°
    Ясно и безоблачно
    ВремяПогодаТемператураВлажностьДавлениеВетер, м/сВероятность осадков
    00:00Ясно и безоблачно+20°C41 %702 мм2.3 м/с5 %
    03:00Ясно и безоблачно+17°C51 %701 мм1.9 м/с5 %
    06:00Ясно и безоблачно+17°C59 %702 мм2.0 м/с5 %
    09:00Ясно и безоблачно+22°C45 %704 мм1.5 м/с5 %
    12:00Ясно и безоблачно+28°C27 %704 мм3.0 м/с5 %
    15:00Ясно и безоблачно+31°C22 %702 мм2.6 м/с5 %
    18:00Ясно и безоблачно+29°C29 %702 мм1.6 м/с5 %
    21:00Ясно и безоблачно+23°C39 %702 мм2.2 м/с5 %
  • 24июля
    Среда
    +15°
    +32°
    Ясно и безоблачно
    ВремяПогодаТемператураВлажностьДавлениеВетер, м/сВероятность осадков
    00:00Ясно и безоблачно+21°C39 %702 мм2.7 м/с5 %
    03:00Ясно и безоблачно+18°C47 %701 мм2.6 м/с5 %
    06:00Ясно и безоблачно+17°C53 %701 мм2.5 м/с5 %
    09:00Ясно и безоблачно+22°C39 %704 мм2.4 м/с5 %
    12:00Ясно и безоблачно+29°C23 %704 мм3.0 м/с5 %
    15:00Ясно и безоблачно+32°C21 %703 мм1.9 м/с5 %
    18:00Ясно и безоблачно+29°C27 %702 мм1.6 м/с5 %
    21:00Ясно и безоблачно+22°C34 %702 мм1.7 м/с5 %
Мы используем cookies
Соглашаюсь